sensor_id;sensor_type;location;lat;lon;timestamp;P1;durP1;ratioP1;P2;durP2;ratioP2
37701;SDS011;23548;51.196;6.838;2023-03-14T00:01:52;5.72;;;1.75;;
37701;SDS011;23548;51.196;6.838;2023-03-14T00:04:18;12.05;;;2.30;;
37701;SDS011;23548;51.196;6.838;2023-03-14T00:06:44;6.25;;;1.75;;
37701;SDS011;23548;51.196;6.838;2023-03-14T00:09:12;10.10;;;2.08;;
37701;SDS011;23548;51.196;6.838;2023-03-14T00:11:38;8.57;;;1.98;;
37701;SDS011;23548;51.196;6.838;2023-03-14T00:14:03;6.65;;;1.70;;
37701;SDS011;23548;51.196;6.838;2023-03-14T00:16:29;4.85;;;1.90;;
37701;SDS011;23548;51.196;6.838;2023-03-14T00:18:55;6.00;;;1.75;;
37701;SDS011;23548;51.196;6.838;2023-03-14T00:21:23;7.05;;;2.28;;
37701;SDS011;23548;51.196;6.838;2023-03-14T00:23:49;7.93;;;2.25;;
37701;SDS011;23548;51.196;6.838;2023-03-14T00:26:15;6.97;;;1.67;;
37701;SDS011;23548;51.196;6.838;2023-03-14T00:28:43;11.02;;;2.20;;
37701;SDS011;23548;51.196;6.838;2023-03-14T00:31:10;8.25;;;1.88;;
37701;SDS011;23548;51.196;6.838;2023-03-14T00:33:41;7.28;;;1.60;;
37701;SDS011;23548;51.196;6.838;2023-03-14T00:36:08;12.40;;;1.75;;
37701;SDS011;23548;51.196;6.838;2023-03-14T00:38:35;11.80;;;2.00;;
37701;SDS011;23548;51.196;6.838;2023-03-14T00:41:03;11.77;;;2.30;;
37701;SDS011;23548;51.196;6.838;2023-03-14T00:43:30;8.93;;;2.10;;
37701;SDS011;23548;51.196;6.838;2023-03-14T00:45:56;7.43;;;2.08;;
37701;SDS011;23548;51.196;6.838;2023-03-14T00:48:23;7.95;;;2.15;;
37701;SDS011;23548;51.196;6.838;2023-03-14T00:50:48;3.03;;;1.48;;
37701;SDS011;23548;51.196;6.838;2023-03-14T00:53:15;9.98;;;1.60;;
37701;SDS011;23548;51.196;6.838;2023-03-14T00:55:41;7.93;;;1.38;;
37701;SDS011;23548;51.196;6.838;2023-03-14T00:58:08;8.48;;;1.48;;
37701;SDS011;23548;51.196;6.838;2023-03-14T01:00:35;10.82;;;1.20;;
37701;SDS011;23548;51.196;6.838;2023-03-14T01:03:01;6.90;;;1.38;;
37701;SDS011;23548;51.196;6.838;2023-03-14T01:05:27;7.70;;;0.95;;
37701;SDS011;23548;51.196;6.838;2023-03-14T01:07:53;6.07;;;1.40;;
37701;SDS011;23548;51.196;6.838;2023-03-14T01:10:19;5.35;;;1.35;;
37701;SDS011;23548;51.196;6.838;2023-03-14T01:12:45;9.38;;;1.20;;
37701;SDS011;23548;51.196;6.838;2023-03-14T01:15:11;6.25;;;1.27;;
37701;SDS011;23548;51.196;6.838;2023-03-14T01:17:37;7.88;;;1.20;;
37701;SDS011;23548;51.196;6.838;2023-03-14T01:20:09;10.70;;;1.77;;
37701;SDS011;23548;51.196;6.838;2023-03-14T01:22:36;7.03;;;2.15;;
37701;SDS011;23548;51.196;6.838;2023-03-14T01:25:05;12.07;;;2.58;;
37701;SDS011;23548;51.196;6.838;2023-03-14T01:27:36;9.60;;;2.17;;
37701;SDS011;23548;51.196;6.838;2023-03-14T01:30:02;10.35;;;1.70;;
37701;SDS011;23548;51.196;6.838;2023-03-14T01:32:29;9.10;;;2.13;;
37701;SDS011;23548;51.196;6.838;2023-03-14T01:34:54;10.25;;;2.17;;
37701;SDS011;23548;51.196;6.838;2023-03-14T01:37:20;7.35;;;1.90;;
37701;SDS011;23548;51.196;6.838;2023-03-14T01:39:46;10.65;;;2.58;;
37701;SDS011;23548;51.196;6.838;2023-03-14T01:42:13;10.48;;;3.60;;
37701;SDS011;23548;51.196;6.838;2023-03-14T01:47:21;12.52;;;5.50;;
37701;SDS011;23548;51.196;6.838;2023-03-14T01:49:59;21.30;;;5.18;;
37701;SDS011;23548;51.196;6.838;2023-03-14T01:52:32;14.98;;;3.25;;
37701;SDS011;23548;51.196;6.838;2023-03-14T01:55:08;13.38;;;3.22;;
37701;SDS011;23548;51.196;6.838;2023-03-14T01:57:56;10.60;;;2.65;;
37701;SDS011;23548;51.196;6.838;2023-03-14T02:00:28;12.82;;;3.38;;
37701;SDS011;23548;51.196;6.838;2023-03-14T02:06:16;10.77;;;2.80;;
37701;SDS011;23548;51.196;6.838;2023-03-14T02:08:45;10.10;;;2.50;;
37701;SDS011;23548;51.196;6.838;2023-03-14T02:11:14;10.82;;;2.50;;
37701;SDS011;23548;51.196;6.838;2023-03-14T02:13:41;10.75;;;2.53;;
37701;SDS011;23548;51.196;6.838;2023-03-14T02:16:07;9.98;;;2.58;;
37701;SDS011;23548;51.196;6.838;2023-03-14T02:18:33;10.73;;;1.98;;
37701;SDS011;23548;51.196;6.838;2023-03-14T02:27:11;10.05;;;2.13;;
37701;SDS011;23548;51.196;6.838;2023-03-14T02:32:36;5.18;;;1.40;;
37701;SDS011;23548;51.196;6.838;2023-03-14T02:35:06;7.65;;;1.60;;
37701;SDS011;23548;51.196;6.838;2023-03-14T02:37:37;9.68;;;1.50;;
37701;SDS011;23548;51.196;6.838;2023-03-14T02:40:08;6.45;;;1.52;;
37701;SDS011;23548;51.196;6.838;2023-03-14T02:42:34;9.55;;;1.88;;
37701;SDS011;23548;51.196;6.838;2023-03-14T02:45:45;6.88;;;1.38;;
37701;SDS011;23548;51.196;6.838;2023-03-14T02:47:48;4.68;;;1.40;;
37701;SDS011;23548;51.196;6.838;2023-03-14T02:50:20;9.13;;;1.85;;
37701;SDS011;23548;51.196;6.838;2023-03-14T02:52:50;8.90;;;1.30;;
37701;SDS011;23548;51.196;6.838;2023-03-14T02:55:20;3.80;;;1.30;;
37701;SDS011;23548;51.196;6.838;2023-03-14T02:57:46;8.23;;;1.50;;
37701;SDS011;23548;51.196;6.838;2023-03-14T03:00:12;8.77;;;1.70;;
37701;SDS011;23548;51.196;6.838;2023-03-14T03:02:38;7.60;;;1.60;;
37701;SDS011;23548;51.196;6.838;2023-03-14T03:05:04;5.35;;;2.03;;
37701;SDS011;23548;51.196;6.838;2023-03-14T03:07:30;6.97;;;1.42;;
37701;SDS011;23548;51.196;6.838;2023-03-14T03:09:56;4.82;;;2.03;;
37701;SDS011;23548;51.196;6.838;2023-03-14T03:12:22;9.55;;;2.40;;
37701;SDS011;23548;51.196;6.838;2023-03-14T03:14:47;8.50;;;2.05;;
37701;SDS011;23548;51.196;6.838;2023-03-14T03:17:13;5.75;;;1.38;;
37701;SDS011;23548;51.196;6.838;2023-03-14T03:19:39;8.45;;;1.42;;
37701;SDS011;23548;51.196;6.838;2023-03-14T03:22:04;8.77;;;1.52;;
37701;SDS011;23548;51.196;6.838;2023-03-14T03:24:30;5.78;;;1.23;;
37701;SDS011;23548;51.196;6.838;2023-03-14T03:26:56;3.90;;;1.30;;
37701;SDS011;23548;51.196;6.838;2023-03-14T03:29:22;7.88;;;1.17;;
37701;SDS011;23548;51.196;6.838;2023-03-14T03:31:48;8.82;;;1.48;;
37701;SDS011;23548;51.196;6.838;2023-03-14T03:34:14;8.00;;;1.65;;
37701;SDS011;23548;51.196;6.838;2023-03-14T03:36:39;6.72;;;1.35;;
37701;SDS011;23548;51.196;6.838;2023-03-14T03:39:05;8.73;;;1.58;;
37701;SDS011;23548;51.196;6.838;2023-03-14T03:41:32;8.90;;;1.75;;
37701;SDS011;23548;51.196;6.838;2023-03-14T03:43:58;10.73;;;2.25;;
37701;SDS011;23548;51.196;6.838;2023-03-14T03:46:24;12.25;;;2.00;;
37701;SDS011;23548;51.196;6.838;2023-03-14T03:48:54;16.98;;;2.30;;
37701;SDS011;23548;51.196;6.838;2023-03-14T03:51:20;10.75;;;2.70;;
37701;SDS011;23548;51.196;6.838;2023-03-14T03:53:46;13.80;;;2.67;;
37701;SDS011;23548;51.196;6.838;2023-03-14T03:56:12;15.68;;;2.75;;
37701;SDS011;23548;51.196;6.838;2023-03-14T03:58:38;13.43;;;3.05;;
37701;SDS011;23548;51.196;6.838;2023-03-14T04:01:04;11.65;;;3.17;;
37701;SDS011;23548;51.196;6.838;2023-03-14T04:03:31;10.98;;;3.10;;
37701;SDS011;23548;51.196;6.838;2023-03-14T04:05:58;14.23;;;3.35;;
37701;SDS011;23548;51.196;6.838;2023-03-14T04:08:29;16.40;;;3.22;;
37701;SDS011;23548;51.196;6.838;2023-03-14T04:10:58;10.02;;;3.17;;
37701;SDS011;23548;51.196;6.838;2023-03-14T04:13:26;10.00;;;2.50;;
37701;SDS011;23548;51.196;6.838;2023-03-14T04:15:52;10.32;;;2.88;;
37701;SDS011;23548;51.196;6.838;2023-03-14T04:18:18;16.08;;;3.58;;
37701;SDS011;23548;51.196;6.838;2023-03-14T04:20:45;12.07;;;3.22;;
37701;SDS011;23548;51.196;6.838;2023-03-14T04:23:11;8.80;;;2.53;;
37701;SDS011;23548;51.196;6.838;2023-03-14T04:25:37;10.27;;;2.90;;
37701;SDS011;23548;51.196;6.838;2023-03-14T04:28:02;7.88;;;2.80;;
37701;SDS011;23548;51.196;6.838;2023-03-14T04:32:56;9.82;;;2.20;;
37701;SDS011;23548;51.196;6.838;2023-03-14T04:35:22;6.78;;;1.90;;
37701;SDS011;23548;51.196;6.838;2023-03-14T04:37:48;17.73;;;3.35;;
37701;SDS011;23548;51.196;6.838;2023-03-14T04:40:14;13.68;;;2.75;;
37701;SDS011;23548;51.196;6.838;2023-03-14T04:42:40;12.80;;;3.78;;
37701;SDS011;23548;51.196;6.838;2023-03-14T04:45:06;15.10;;;4.13;;
37701;SDS011;23548;51.196;6.838;2023-03-14T04:47:33;9.27;;;3.10;;
37701;SDS011;23548;51.196;6.838;2023-03-14T04:49:58;6.63;;;1.95;;
37701;SDS011;23548;51.196;6.838;2023-03-14T04:52:25;6.93;;;2.00;;
37701;SDS011;23548;51.196;6.838;2023-03-14T04:54:52;8.60;;;2.28;;
37701;SDS011;23548;51.196;6.838;2023-03-14T04:57:17;7.72;;;1.90;;
37701;SDS011;23548;51.196;6.838;2023-03-14T04:59:43;10.65;;;1.73;;
37701;SDS011;23548;51.196;6.838;2023-03-14T05:02:09;7.75;;;1.48;;
37701;SDS011;23548;51.196;6.838;2023-03-14T05:04:35;8.15;;;1.85;;
37701;SDS011;23548;51.196;6.838;2023-03-14T05:07:01;5.47;;;1.65;;
37701;SDS011;23548;51.196;6.838;2023-03-14T05:09:26;6.88;;;1.63;;
37701;SDS011;23548;51.196;6.838;2023-03-14T05:11:52;6.28;;;1.77;;
37701;SDS011;23548;51.196;6.838;2023-03-14T05:14:18;6.45;;;1.40;;
37701;SDS011;23548;51.196;6.838;2023-03-14T05:16:44;5.53;;;1.30;;
37701;SDS011;23548;51.196;6.838;2023-03-14T05:19:10;5.43;;;1.60;;
37701;SDS011;23548;51.196;6.838;2023-03-14T05:21:36;3.97;;;1.25;;
37701;SDS011;23548;51.196;6.838;2023-03-14T05:24:02;2.22;;;1.08;;
37701;SDS011;23548;51.196;6.838;2023-03-14T05:26:28;4.38;;;1.83;;
37701;SDS011;23548;51.196;6.838;2023-03-14T05:28:54;3.60;;;1.02;;
37701;SDS011;23548;51.196;6.838;2023-03-14T05:31:20;3.17;;;1.27;;
37701;SDS011;23548;51.196;6.838;2023-03-14T05:33:46;3.15;;;1.58;;
37701;SDS011;23548;51.196;6.838;2023-03-14T05:36:11;3.40;;;1.30;;
37701;SDS011;23548;51.196;6.838;2023-03-14T05:38:37;2.25;;;0.77;;
37701;SDS011;23548;51.196;6.838;2023-03-14T05:41:03;4.43;;;0.88;;
37701;SDS011;23548;51.196;6.838;2023-03-14T05:43:29;5.93;;;2.00;;
37701;SDS011;23548;51.196;6.838;2023-03-14T05:45:55;1.83;;;0.57;;
37701;SDS011;23548;51.196;6.838;2023-03-14T05:48:20;1.70;;;0.85;;
37701;SDS011;23548;51.196;6.838;2023-03-14T05:50:46;1.73;;;0.70;;
37701;SDS011;23548;51.196;6.838;2023-03-14T05:53:12;3.33;;;1.23;;
37701;SDS011;23548;51.196;6.838;2023-03-14T05:55:39;3.55;;;0.70;;
37701;SDS011;23548;51.196;6.838;2023-03-14T05:58:05;4.90;;;2.83;;
37701;SDS011;23548;51.196;6.838;2023-03-14T06:00:31;1.90;;;0.68;;
37701;SDS011;23548;51.196;6.838;2023-03-14T06:02:57;3.40;;;0.70;;
37701;SDS011;23548;51.196;6.838;2023-03-14T06:05:23;1.98;;;0.60;;
37701;SDS011;23548;51.196;6.838;2023-03-14T06:07:48;1.58;;;0.73;;
37701;SDS011;23548;51.196;6.838;2023-03-14T06:10:14;1.73;;;0.65;;
37701;SDS011;23548;51.196;6.838;2023-03-14T06:12:40;2.63;;;0.90;;
37701;SDS011;23548;51.196;6.838;2023-03-14T06:15:06;1.92;;;0.68;;
37701;SDS011;23548;51.196;6.838;2023-03-14T06:17:32;3.15;;;0.90;;
37701;SDS011;23548;51.196;6.838;2023-03-14T06:19:58;2.13;;;1.00;;
37701;SDS011;23548;51.196;6.838;2023-03-14T06:22:24;0.50;;;0.43;;
37701;SDS011;23548;51.196;6.838;2023-03-14T06:24:49;0.68;;;0.45;;
37701;SDS011;23548;51.196;6.838;2023-03-14T06:27:15;0.88;;;0.57;;
37701;SDS011;23548;51.196;6.838;2023-03-14T06:29:41;1.17;;;0.50;;
37701;SDS011;23548;51.196;6.838;2023-03-14T06:32:06;0.60;;;0.45;;
37701;SDS011;23548;51.196;6.838;2023-03-14T06:34:32;1.15;;;0.60;;
37701;SDS011;23548;51.196;6.838;2023-03-14T06:36:58;3.30;;;0.93;;
37701;SDS011;23548;51.196;6.838;2023-03-14T06:39:23;1.90;;;0.50;;
37701;SDS011;23548;51.196;6.838;2023-03-14T06:41:49;0.57;;;0.52;;
37701;SDS011;23548;51.196;6.838;2023-03-14T06:44:15;1.33;;;0.50;;
37701;SDS011;23548;51.196;6.838;2023-03-14T06:46:40;0.90;;;0.50;;
37701;SDS011;23548;51.196;6.838;2023-03-14T06:49:06;0.82;;;0.38;;
37701;SDS011;23548;51.196;6.838;2023-03-14T06:51:32;0.68;;;0.50;;
37701;SDS011;23548;51.196;6.838;2023-03-14T06:53:58;1.55;;;0.85;;
37701;SDS011;23548;51.196;6.838;2023-03-14T06:56:23;1.77;;;0.70;;
37701;SDS011;23548;51.196;6.838;2023-03-14T06:58:49;2.35;;;0.60;;
37701;SDS011;23548;51.196;6.838;2023-03-14T07:01:22;1.67;;;0.80;;
37701;SDS011;23548;51.196;6.838;2023-03-14T07:03:50;1.70;;;0.88;;
37701;SDS011;23548;51.196;6.838;2023-03-14T07:06:16;3.15;;;0.80;;
37701;SDS011;23548;51.196;6.838;2023-03-14T07:08:41;3.28;;;1.52;;
37701;SDS011;23548;51.196;6.838;2023-03-14T07:11:07;1.52;;;1.10;;
37701;SDS011;23548;51.196;6.838;2023-03-14T07:13:35;1.77;;;1.40;;
37701;SDS011;23548;51.196;6.838;2023-03-14T07:16:00;1.90;;;1.08;;
37701;SDS011;23548;51.196;6.838;2023-03-14T07:18:26;4.13;;;1.20;;
37701;SDS011;23548;51.196;6.838;2023-03-14T07:20:52;4.78;;;1.05;;
37701;SDS011;23548;51.196;6.838;2023-03-14T07:23:18;1.88;;;1.10;;
37701;SDS011;23548;51.196;6.838;2023-03-14T07:25:43;2.45;;;1.20;;
37701;SDS011;23548;51.196;6.838;2023-03-14T07:28:09;2.08;;;0.80;;
37701;SDS011;23548;51.196;6.838;2023-03-14T07:30:35;0.85;;;0.50;;
37701;SDS011;23548;51.196;6.838;2023-03-14T07:33:00;1.15;;;0.70;;
37701;SDS011;23548;51.196;6.838;2023-03-14T07:35:26;1.40;;;0.65;;
37701;SDS011;23548;51.196;6.838;2023-03-14T07:37:52;2.40;;;0.60;;
37701;SDS011;23548;51.196;6.838;2023-03-14T07:40:17;0.93;;;0.52;;
37701;SDS011;23548;51.196;6.838;2023-03-14T07:42:44;2.42;;;0.60;;
37701;SDS011;23548;51.196;6.838;2023-03-14T07:45:10;1.95;;;0.52;;
37701;SDS011;23548;51.196;6.838;2023-03-14T07:47:36;0.85;;;0.57;;
37701;SDS011;23548;51.196;6.838;2023-03-14T07:50:03;1.20;;;0.60;;
37701;SDS011;23548;51.196;6.838;2023-03-14T07:52:29;0.65;;;0.55;;
37701;SDS011;23548;51.196;6.838;2023-03-14T07:54:55;3.90;;;0.52;;
37701;SDS011;23548;51.196;6.838;2023-03-14T07:57:21;1.45;;;0.63;;
37701;SDS011;23548;51.196;6.838;2023-03-14T07:59:48;2.00;;;0.55;;
37701;SDS011;23548;51.196;6.838;2023-03-14T08:02:14;1.88;;;0.40;;
37701;SDS011;23548;51.196;6.838;2023-03-14T08:04:40;1.45;;;0.50;;
37701;SDS011;23548;51.196;6.838;2023-03-14T08:07:06;0.82;;;0.45;;
37701;SDS011;23548;51.196;6.838;2023-03-14T08:09:32;1.15;;;0.57;;
37701;SDS011;23548;51.196;6.838;2023-03-14T08:11:57;4.82;;;0.80;;
37701;SDS011;23548;51.196;6.838;2023-03-14T08:14:23;1.52;;;0.85;;
37701;SDS011;23548;51.196;6.838;2023-03-14T08:16:50;1.70;;;0.60;;
37701;SDS011;23548;51.196;6.838;2023-03-14T08:19:16;1.35;;;0.60;;
37701;SDS011;23548;51.196;6.838;2023-03-14T08:21:42;2.65;;;0.52;;
37701;SDS011;23548;51.196;6.838;2023-03-14T08:24:08;1.77;;;0.70;;
37701;SDS011;23548;51.196;6.838;2023-03-14T08:26:34;1.23;;;0.57;;
37701;SDS011;23548;51.196;6.838;2023-03-14T08:29:00;1.45;;;0.60;;
37701;SDS011;23548;51.196;6.838;2023-03-14T08:31:26;2.70;;;0.65;;
37701;SDS011;23548;51.196;6.838;2023-03-14T08:33:51;2.45;;;0.68;;
37701;SDS011;23548;51.196;6.838;2023-03-14T08:36:18;0.82;;;0.50;;
37701;SDS011;23548;51.196;6.838;2023-03-14T08:38:44;1.00;;;0.60;;
37701;SDS011;23548;51.196;6.838;2023-03-14T08:41:10;1.98;;;0.73;;
37701;SDS011;23548;51.196;6.838;2023-03-14T08:43:36;1.13;;;0.80;;
37701;SDS011;23548;51.196;6.838;2023-03-14T08:46:02;1.48;;;0.90;;
37701;SDS011;23548;51.196;6.838;2023-03-14T08:48:28;3.20;;;1.33;;
37701;SDS011;23548;51.196;6.838;2023-03-14T08:50:56;1.40;;;1.00;;
37701;SDS011;23548;51.196;6.838;2023-03-14T08:53:22;1.77;;;1.30;;
37701;SDS011;23548;51.196;6.838;2023-03-14T08:55:54;2.72;;;2.00;;
37701;SDS011;23548;51.196;6.838;2023-03-14T08:58:19;3.53;;;2.00;;
37701;SDS011;23548;51.196;6.838;2023-03-14T09:00:47;3.00;;;1.42;;
37701;SDS011;23548;51.196;6.838;2023-03-14T09:03:13;2.20;;;1.13;;
37701;SDS011;23548;51.196;6.838;2023-03-14T09:05:39;4.57;;;1.20;;
37701;SDS011;23548;51.196;6.838;2023-03-14T09:08:05;2.90;;;1.10;;
37701;SDS011;23548;51.196;6.838;2023-03-14T09:10:31;2.05;;;1.23;;
37701;SDS011;23548;51.196;6.838;2023-03-14T09:12:56;1.20;;;0.98;;
37701;SDS011;23548;51.196;6.838;2023-03-14T09:15:23;3.42;;;1.00;;
37701;SDS011;23548;51.196;6.838;2023-03-14T09:17:49;1.65;;;0.80;;
37701;SDS011;23548;51.196;6.838;2023-03-14T09:20:15;2.80;;;1.00;;
37701;SDS011;23548;51.196;6.838;2023-03-14T09:22:41;1.85;;;0.75;;
37701;SDS011;23548;51.196;6.838;2023-03-14T09:25:07;13.13;;;1.70;;
37701;SDS011;23548;51.196;6.838;2023-03-14T09:27:33;1.40;;;0.73;;
37701;SDS011;23548;51.196;6.838;2023-03-14T09:29:59;3.30;;;0.80;;
37701;SDS011;23548;51.196;6.838;2023-03-14T09:32:24;0.45;;;0.45;;
37701;SDS011;23548;51.196;6.838;2023-03-14T09:34:50;0.93;;;0.30;;
37701;SDS011;23548;51.196;6.838;2023-03-14T09:37:16;0.63;;;0.40;;
37701;SDS011;23548;51.196;6.838;2023-03-14T09:39:42;0.65;;;0.20;;
37701;SDS011;23548;51.196;6.838;2023-03-14T09:42:17;0.40;;;0.30;;
37701;SDS011;23548;51.196;6.838;2023-03-14T09:44:53;0.90;;;0.60;;
37701;SDS011;23548;51.196;6.838;2023-03-14T09:47:27;0.68;;;0.60;;
37701;SDS011;23548;51.196;6.838;2023-03-14T09:49:53;1.00;;;0.70;;
37701;SDS011;23548;51.196;6.838;2023-03-14T09:55:09;1.92;;;1.05;;
37701;SDS011;23548;51.196;6.838;2023-03-14T09:57:38;2.33;;;1.23;;
37701;SDS011;23548;51.196;6.838;2023-03-14T10:00:25;1.48;;;0.90;;
37701;SDS011;23548;51.196;6.838;2023-03-14T10:02:56;3.22;;;1.40;;
37701;SDS011;23548;51.196;6.838;2023-03-14T10:05:27;1.73;;;0.93;;
37701;SDS011;23548;51.196;6.838;2023-03-14T10:07:54;1.88;;;1.52;;
37701;SDS011;23548;51.196;6.838;2023-03-14T10:10:21;3.70;;;1.48;;
37701;SDS011;23548;51.196;6.838;2023-03-14T10:12:55;3.88;;;1.60;;
37701;SDS011;23548;51.196;6.838;2023-03-14T10:15:27;2.10;;;1.48;;
37701;SDS011;23548;51.196;6.838;2023-03-14T10:17:58;1.77;;;1.30;;
37701;SDS011;23548;51.196;6.838;2023-03-14T10:20:39;1.50;;;1.38;;
37701;SDS011;23548;51.196;6.838;2023-03-14T10:25:41;7.78;;;1.58;;
37701;SDS011;23548;51.196;6.838;2023-03-14T10:28:25;2.40;;;1.13;;
37701;SDS011;23548;51.196;6.838;2023-03-14T10:30:53;5.35;;;1.60;;
37701;SDS011;23548;51.196;6.838;2023-03-14T10:33:21;2.25;;;1.60;;
37701;SDS011;23548;51.196;6.838;2023-03-14T10:38:42;3.58;;;1.50;;
37701;SDS011;23548;51.196;6.838;2023-03-14T10:41:19;4.30;;;1.77;;
37701;SDS011;23548;51.196;6.838;2023-03-14T10:43:56;3.10;;;1.75;;
37701;SDS011;23548;51.196;6.838;2023-03-14T10:46:24;5.25;;;1.98;;
37701;SDS011;23548;51.196;6.838;2023-03-14T10:48:53;3.17;;;1.48;;
37701;SDS011;23548;51.196;6.838;2023-03-14T10:51:22;4.35;;;1.80;;
37701;SDS011;23548;51.196;6.838;2023-03-14T10:53:58;2.58;;;2.10;;
37701;SDS011;23548;51.196;6.838;2023-03-14T10:56:37;3.80;;;2.60;;
37701;SDS011;23548;51.196;6.838;2023-03-14T10:59:03;3.25;;;2.40;;
37701;SDS011;23548;51.196;6.838;2023-03-14T11:07:40;3.88;;;3.05;;
37701;SDS011;23548;51.196;6.838;2023-03-14T11:15:49;3.75;;;1.70;;
37701;SDS011;23548;51.196;6.838;2023-03-14T11:31:50;7.75;;;3.90;;
37701;SDS011;23548;51.196;6.838;2023-03-14T11:34:37;10.13;;;3.03;;
37701;SDS011;23548;51.196;6.838;2023-03-14T11:37:26;6.85;;;2.95;;
37701;SDS011;23548;51.196;6.838;2023-03-14T11:40:05;5.32;;;3.00;;
37701;SDS011;23548;51.196;6.838;2023-03-14T11:42:34;11.38;;;2.85;;
37701;SDS011;23548;51.196;6.838;2023-03-14T11:45:00;7.63;;;2.50;;
37701;SDS011;23548;51.196;6.838;2023-03-14T11:47:39;4.85;;;1.80;;
37701;SDS011;23548;51.196;6.838;2023-03-14T11:50:19;5.85;;;2.65;;
37701;SDS011;23548;51.196;6.838;2023-03-14T11:52:56;4.90;;;2.80;;
37701;SDS011;23548;51.196;6.838;2023-03-14T11:55:43;5.22;;;1.67;;
37701;SDS011;23548;51.196;6.838;2023-03-14T11:58:27;5.40;;;2.35;;
37701;SDS011;23548;51.196;6.838;2023-03-14T12:01:01;5.40;;;2.20;;
37701;SDS011;23548;51.196;6.838;2023-03-14T12:06:49;4.47;;;2.38;;
37701;SDS011;23548;51.196;6.838;2023-03-14T12:09:16;3.22;;;1.85;;
37701;SDS011;23548;51.196;6.838;2023-03-14T12:12:01;3.97;;;2.15;;
37701;SDS011;23548;51.196;6.838;2023-03-14T12:14:33;3.22;;;1.83;;
37701;SDS011;23548;51.196;6.838;2023-03-14T12:17:21;4.32;;;1.70;;
37701;SDS011;23548;51.196;6.838;2023-03-14T12:20:32;1.08;;;0.60;;
37701;SDS011;23548;51.196;6.838;2023-03-14T12:22:51;3.35;;;1.35;;
37701;SDS011;23548;51.196;6.838;2023-03-14T12:25:24;7.30;;;1.80;;
37701;SDS011;23548;51.196;6.838;2023-03-14T12:38:03;7.25;;;1.58;;
37701;SDS011;23548;51.196;6.838;2023-03-14T12:40:37;6.75;;;1.80;;
37701;SDS011;23548;51.196;6.838;2023-03-14T12:48:44;8.02;;;2.22;;
37701;SDS011;23548;51.196;6.838;2023-03-14T12:56:32;8.68;;;1.75;;
37701;SDS011;23548;51.196;6.838;2023-03-14T13:01:54;7.45;;;1.70;;
37701;SDS011;23548;51.196;6.838;2023-03-14T13:04:29;11.10;;;2.00;;
37701;SDS011;23548;51.196;6.838;2023-03-14T13:06:57;7.35;;;1.95;;
37701;SDS011;23548;51.196;6.838;2023-03-14T13:12:03;2.42;;;0.82;;
37701;SDS011;23548;51.196;6.838;2023-03-14T13:14:35;2.08;;;0.98;;
37701;SDS011;23548;51.196;6.838;2023-03-14T13:17:09;5.47;;;1.50;;
37701;SDS011;23548;51.196;6.838;2023-03-14T13:19:40;5.82;;;1.83;;
37701;SDS011;23548;51.196;6.838;2023-03-14T13:22:21;8.07;;;2.30;;
37701;SDS011;23548;51.196;6.838;2023-03-14T13:24:50;11.27;;;2.70;;
37701;SDS011;23548;51.196;6.838;2023-03-14T13:27:35;11.23;;;3.42;;
37701;SDS011;23548;51.196;6.838;2023-03-14T13:32:52;17.05;;;3.30;;
37701;SDS011;23548;51.196;6.838;2023-03-14T13:35:21;20.05;;;3.95;;
37701;SDS011;23548;51.196;6.838;2023-03-14T13:37:53;12.35;;;2.83;;
37701;SDS011;23548;51.196;6.838;2023-03-14T13:40:25;19.02;;;3.45;;
37701;SDS011;23548;51.196;6.838;2023-03-14T13:46:00;14.80;;;2.50;;
37701;SDS011;23548;51.196;6.838;2023-03-14T13:48:30;15.80;;;3.20;;
37701;SDS011;23548;51.196;6.838;2023-03-14T13:51:02;12.57;;;2.63;;
37701;SDS011;23548;51.196;6.838;2023-03-14T13:53:47;19.80;;;3.65;;
37701;SDS011;23548;51.196;6.838;2023-03-14T13:56:14;17.30;;;3.38;;
37701;SDS011;23548;51.196;6.838;2023-03-14T13:58:42;18.20;;;3.10;;
37701;SDS011;23548;51.196;6.838;2023-03-14T14:01:13;15.63;;;2.80;;
37701;SDS011;23548;51.196;6.838;2023-03-14T14:03:42;19.65;;;3.42;;
37701;SDS011;23548;51.196;6.838;2023-03-14T14:09:03;23.48;;;3.25;;
37701;SDS011;23548;51.196;6.838;2023-03-14T14:11:56;21.23;;;3.80;;
37701;SDS011;23548;51.196;6.838;2023-03-14T14:17:00;16.92;;;3.72;;
37701;SDS011;23548;51.196;6.838;2023-03-14T14:19:29;19.77;;;3.97;;
37701;SDS011;23548;51.196;6.838;2023-03-14T14:21:58;32.03;;;4.50;;
37701;SDS011;23548;51.196;6.838;2023-03-14T14:24:25;17.25;;;3.55;;
37701;SDS011;23548;51.196;6.838;2023-03-14T14:27:03;19.25;;;4.72;;
37701;SDS011;23548;51.196;6.838;2023-03-14T14:29:59;19.70;;;4.03;;
37701;SDS011;23548;51.196;6.838;2023-03-14T14:32:37;23.88;;;4.10;;
37701;SDS011;23548;51.196;6.838;2023-03-14T14:35:03;13.07;;;3.35;;
37701;SDS011;23548;51.196;6.838;2023-03-14T14:37:31;25.45;;;4.10;;
37701;SDS011;23548;51.196;6.838;2023-03-14T14:40:01;16.60;;;3.65;;
37701;SDS011;23548;51.196;6.838;2023-03-14T14:42:34;21.65;;;4.18;;
37701;SDS011;23548;51.196;6.838;2023-03-14T14:45:06;23.10;;;3.40;;
37701;SDS011;23548;51.196;6.838;2023-03-14T14:47:47;20.00;;;3.13;;
37701;SDS011;23548;51.196;6.838;2023-03-14T14:53:00;14.73;;;3.05;;
37701;SDS011;23548;51.196;6.838;2023-03-14T14:55:32;19.20;;;2.08;;
37701;SDS011;23548;51.196;6.838;2023-03-14T14:58:11;11.52;;;2.42;;
37701;SDS011;23548;51.196;6.838;2023-03-14T15:00:55;12.30;;;2.08;;
37701;SDS011;23548;51.196;6.838;2023-03-14T15:03:21;11.55;;;2.00;;
37701;SDS011;23548;51.196;6.838;2023-03-14T15:05:47;7.03;;;1.50;;
37701;SDS011;23548;51.196;6.838;2023-03-14T15:08:13;6.97;;;1.75;;
37701;SDS011;23548;51.196;6.838;2023-03-14T15:10:39;7.78;;;1.75;;
37701;SDS011;23548;51.196;6.838;2023-03-14T15:13:05;11.43;;;1.80;;
37701;SDS011;23548;51.196;6.838;2023-03-14T15:15:31;16.58;;;2.20;;
37701;SDS011;23548;51.196;6.838;2023-03-14T15:17:57;8.07;;;1.52;;
37701;SDS011;23548;51.196;6.838;2023-03-14T15:20:23;11.93;;;2.17;;
37701;SDS011;23548;51.196;6.838;2023-03-14T15:22:48;12.95;;;2.58;;
37701;SDS011;23548;51.196;6.838;2023-03-14T15:25:15;11.52;;;2.28;;
37701;SDS011;23548;51.196;6.838;2023-03-14T15:27:41;11.63;;;1.80;;
37701;SDS011;23548;51.196;6.838;2023-03-14T15:30:14;9.50;;;2.05;;
37701;SDS011;23548;51.196;6.838;2023-03-14T15:32:41;9.45;;;2.00;;
37701;SDS011;23548;51.196;6.838;2023-03-14T15:35:07;13.73;;;2.17;;
37701;SDS011;23548;51.196;6.838;2023-03-14T15:37:33;8.70;;;2.00;;
37701;SDS011;23548;51.196;6.838;2023-03-14T15:40:00;10.50;;;2.35;;
37701;SDS011;23548;51.196;6.838;2023-03-14T15:42:29;8.35;;;1.77;;
37701;SDS011;23548;51.196;6.838;2023-03-14T15:44:55;6.75;;;1.63;;
37701;SDS011;23548;51.196;6.838;2023-03-14T15:47:20;8.07;;;1.83;;
37701;SDS011;23548;51.196;6.838;2023-03-14T15:49:46;13.55;;;2.42;;
37701;SDS011;23548;51.196;6.838;2023-03-14T15:52:12;8.70;;;1.45;;
37701;SDS011;23548;51.196;6.838;2023-03-14T15:54:38;6.50;;;1.67;;
37701;SDS011;23548;51.196;6.838;2023-03-14T15:57:03;12.77;;;2.08;;
37701;SDS011;23548;51.196;6.838;2023-03-14T15:59:31;6.40;;;1.48;;
37701;SDS011;23548;51.196;6.838;2023-03-14T16:01:57;9.30;;;1.55;;
37701;SDS011;23548;51.196;6.838;2023-03-14T16:04:22;11.70;;;2.00;;
37701;SDS011;23548;51.196;6.838;2023-03-14T16:06:48;8.57;;;1.63;;
37701;SDS011;23548;51.196;6.838;2023-03-14T16:09:14;8.73;;;2.10;;
37701;SDS011;23548;51.196;6.838;2023-03-14T16:11:39;12.40;;;2.05;;
37701;SDS011;23548;51.196;6.838;2023-03-14T16:14:06;8.85;;;1.65;;
37701;SDS011;23548;51.196;6.838;2023-03-14T16:16:32;10.27;;;1.73;;
37701;SDS011;23548;51.196;6.838;2023-03-14T16:18:58;8.20;;;2.08;;
37701;SDS011;23548;51.196;6.838;2023-03-14T16:21:23;8.45;;;1.98;;
37701;SDS011;23548;51.196;6.838;2023-03-14T16:23:49;8.85;;;1.83;;
37701;SDS011;23548;51.196;6.838;2023-03-14T16:26:17;14.13;;;1.85;;